sensor_id;sensor_type;location;lat;lon;timestamp;pressure;altitude;pressure_sealevel;temperature;humidity
75089;BME280;63673;49.928;8.150;2023-12-07T00:00:08;994.4;;;0.37;100
75089;BME280;63673;49.928;8.150;2023-12-07T00:01:09;994.48;;;0.38;100
75089;BME280;63673;49.928;8.150;2023-12-07T00:02:11;994.42;;;0.37;100
75089;BME280;63673;49.928;8.150;2023-12-07T00:03:13;994.49;;;0.38;100
75089;BME280;63673;49.928;8.150;2023-12-07T00:04:15;994.55;;;0.38;100
75089;BME280;63673;49.928;8.150;2023-12-07T00:05:16;994.5;;;0.39;100
75089;BME280;63673;49.928;8.150;2023-12-07T00:06:18;994.55;;;0.39;100
75089;BME280;63673;49.928;8.150;2023-12-07T00:07:20;994.53;;;0.4;100
75089;BME280;63673;49.928;8.150;2023-12-07T00:08:22;994.51;;;0.39;100
75089;BME280;63673;49.928;8.150;2023-12-07T00:09:23;994.56;;;0.38;100
75089;BME280;63673;49.928;8.150;2023-12-07T00:10:25;994.55;;;0.39;100
75089;BME280;63673;49.928;8.150;2023-12-07T00:11:27;994.57;;;0.39;100
75089;BME280;63673;49.928;8.150;2023-12-07T00:12:28;994.56;;;0.39;100
75089;BME280;63673;49.928;8.150;2023-12-07T00:13:30;994.53;;;0.39;100
75089;BME280;63673;49.928;8.150;2023-12-07T00:14:32;994.56;;;0.39;100
75089;BME280;63673;49.928;8.150;2023-12-07T00:15:34;994.52;;;0.38;100
75089;BME280;63673;49.928;8.150;2023-12-07T00:16:36;994.57;;;0.38;100
75089;BME280;63673;49.928;8.150;2023-12-07T00:17:37;994.55;;;0.39;100
75089;BME280;63673;49.928;8.150;2023-12-07T00:18:39;994.53;;;0.38;100
75089;BME280;63673;49.928;8.150;2023-12-07T00:19:41;994.56;;;0.39;100
75089;BME280;63673;49.928;8.150;2023-12-07T00:20:42;994.56;;;0.38;100
75089;BME280;63673;49.928;8.150;2023-12-07T00:21:44;994.53;;;0.38;100
75089;BME280;63673;49.928;8.150;2023-12-07T00:22:46;994.56;;;0.38;100
75089;BME280;63673;49.928;8.150;2023-12-07T00:23:48;994.51;;;0.37;100
75089;BME280;63673;49.928;8.150;2023-12-07T00:24:49;994.54;;;0.37;100
75089;BME280;63673;49.928;8.150;2023-12-07T00:25:51;994.51;;;0.36;100
75089;BME280;63673;49.928;8.150;2023-12-07T00:26:53;994.6;;;0.36;100
75089;BME280;63673;49.928;8.150;2023-12-07T00:27:54;994.62;;;0.36;100
75089;BME280;63673;49.928;8.150;2023-12-07T00:28:56;994.6;;;0.35;100
75089;BME280;63673;49.928;8.150;2023-12-07T00:29:58;994.57;;;0.35;100
75089;BME280;63673;49.928;8.150;2023-12-07T00:31:00;994.57;;;0.35;100
75089;BME280;63673;49.928;8.150;2023-12-07T00:32:01;994.64;;;0.34;100
75089;BME280;63673;49.928;8.150;2023-12-07T00:33:03;994.64;;;0.35;100
75089;BME280;63673;49.928;8.150;2023-12-07T00:34:05;994.61;;;0.34;100
75089;BME280;63673;49.928;8.150;2023-12-07T00:35:07;994.61;;;0.34;100
75089;BME280;63673;49.928;8.150;2023-12-07T00:36:08;994.61;;;0.33;100
75089;BME280;63673;49.928;8.150;2023-12-07T00:37:10;994.62;;;0.33;100
75089;BME280;63673;49.928;8.150;2023-12-07T00:38:11;994.65;;;0.33;100
75089;BME280;63673;49.928;8.150;2023-12-07T00:39:13;994.65;;;0.33;100
75089;BME280;63673;49.928;8.150;2023-12-07T00:40:16;994.63;;;0.32;100
75089;BME280;63673;49.928;8.150;2023-12-07T00:41:18;994.63;;;0.33;100
75089;BME280;63673;49.928;8.150;2023-12-07T00:42:19;994.66;;;0.33;100
75089;BME280;63673;49.928;8.150;2023-12-07T00:43:20;994.67;;;0.32;100
75089;BME280;63673;49.928;8.150;2023-12-07T00:44:32;994.69;;;0.32;100
75089;BME280;63673;49.928;8.150;2023-12-07T00:45:33;994.68;;;0.33;100
75089;BME280;63673;49.928;8.150;2023-12-07T00:46:35;994.7;;;0.33;100
75089;BME280;63673;49.928;8.150;2023-12-07T00:47:37;994.72;;;0.33;100
75089;BME280;63673;49.928;8.150;2023-12-07T00:48:38;994.72;;;0.33;100
75089;BME280;63673;49.928;8.150;2023-12-07T00:49:40;994.74;;;0.33;100
75089;BME280;63673;49.928;8.150;2023-12-07T00:50:42;994.68;;;0.33;100
75089;BME280;63673;49.928;8.150;2023-12-07T00:51:44;994.7;;;0.33;100
75089;BME280;63673;49.928;8.150;2023-12-07T00:52:45;994.71;;;0.33;100
75089;BME280;63673;49.928;8.150;2023-12-07T00:53:47;994.71;;;0.33;100
75089;BME280;63673;49.928;8.150;2023-12-07T00:54:49;994.71;;;0.33;100
75089;BME280;63673;49.928;8.150;2023-12-07T00:55:50;994.68;;;0.33;100
75089;BME280;63673;49.928;8.150;2023-12-07T00:56:52;994.73;;;0.34;100
75089;BME280;63673;49.928;8.150;2023-12-07T00:57:54;994.77;;;0.33;100
75089;BME280;63673;49.928;8.150;2023-12-07T00:58:56;994.78;;;0.33;100
75089;BME280;63673;49.928;8.150;2023-12-07T00:59:57;994.82;;;0.32;100
75089;BME280;63673;49.928;8.150;2023-12-07T01:00:59;994.82;;;0.33;100
75089;BME280;63673;49.928;8.150;2023-12-07T01:02:01;994.83;;;0.33;100
75089;BME280;63673;49.928;8.150;2023-12-07T01:03:03;994.82;;;0.34;100
75089;BME280;63673;49.928;8.150;2023-12-07T01:04:04;994.86;;;0.33;100
75089;BME280;63673;49.928;8.150;2023-12-07T01:05:06;994.84;;;0.33;100
75089;BME280;63673;49.928;8.150;2023-12-07T01:06:08;994.78;;;0.33;100
75089;BME280;63673;49.928;8.150;2023-12-07T01:07:09;994.79;;;0.33;100
75089;BME280;63673;49.928;8.150;2023-12-07T01:08:11;994.83;;;0.31;100
75089;BME280;63673;49.928;8.150;2023-12-07T01:09:13;994.82;;;0.31;100
75089;BME280;63673;49.928;8.150;2023-12-07T01:10:15;994.81;;;0.3;100
75089;BME280;63673;49.928;8.150;2023-12-07T01:11:16;994.86;;;0.29;100
75089;BME280;63673;49.928;8.150;2023-12-07T01:12:18;994.87;;;0.28;100
75089;BME280;63673;49.928;8.150;2023-12-07T01:13:20;994.89;;;0.27;100
75089;BME280;63673;49.928;8.150;2023-12-07T01:14:22;994.83;;;0.26;100
75089;BME280;63673;49.928;8.150;2023-12-07T01:15:23;994.9;;;0.24;100
75089;BME280;63673;49.928;8.150;2023-12-07T01:16:25;994.94;;;0.23;100
75089;BME280;63673;49.928;8.150;2023-12-07T01:17:27;994.93;;;0.22;100
75089;BME280;63673;49.928;8.150;2023-12-07T01:18:29;994.95;;;0.19;100
75089;BME280;63673;49.928;8.150;2023-12-07T01:19:30;994.99;;;0.17;100
75089;BME280;63673;49.928;8.150;2023-12-07T01:20:32;994.96;;;0.14;100
75089;BME280;63673;49.928;8.150;2023-12-07T01:21:34;994.99;;;0.1;100
75089;BME280;63673;49.928;8.150;2023-12-07T01:22:35;994.93;;;0.07;100
75089;BME280;63673;49.928;8.150;2023-12-07T01:23:37;995.01;;;0.03;100
75089;BME280;63673;49.928;8.150;2023-12-07T01:24:39;995.04;;;0;100
75089;BME280;63673;49.928;8.150;2023-12-07T01:25:41;995.06;;;-0.04;100
75089;BME280;63673;49.928;8.150;2023-12-07T01:26:42;995.08;;;-0.09;100
75089;BME280;63673;49.928;8.150;2023-12-07T01:27:44;995.08;;;-0.12;100
75089;BME280;63673;49.928;8.150;2023-12-07T01:28:46;995.13;;;-0.14;100
75089;BME280;63673;49.928;8.150;2023-12-07T01:29:48;995.14;;;-0.19;100
75089;BME280;63673;49.928;8.150;2023-12-07T01:30:49;995.11;;;-0.21;100
75089;BME280;63673;49.928;8.150;2023-12-07T01:31:51;995.11;;;-0.23;100
75089;BME280;63673;49.928;8.150;2023-12-07T01:32:53;995.13;;;-0.26;100
75089;BME280;63673;49.928;8.150;2023-12-07T01:33:55;995.16;;;-0.29;100
75089;BME280;63673;49.928;8.150;2023-12-07T01:34:56;995.12;;;-0.32;100
75089;BME280;63673;49.928;8.150;2023-12-07T01:35:58;995.13;;;-0.34;100
75089;BME280;63673;49.928;8.150;2023-12-07T01:37:00;995.15;;;-0.37;100
75089;BME280;63673;49.928;8.150;2023-12-07T01:38:02;995.15;;;-0.39;100
75089;BME280;63673;49.928;8.150;2023-12-07T01:39:03;995.09;;;-0.42;100
75089;BME280;63673;49.928;8.150;2023-12-07T01:40:05;995.11;;;-0.45;100
75089;BME280;63673;49.928;8.150;2023-12-07T01:41:07;995.07;;;-0.48;100
75089;BME280;63673;49.928;8.150;2023-12-07T01:42:09;995.09;;;-0.51;100
75089;BME280;63673;49.928;8.150;2023-12-07T01:43:10;995.05;;;-0.53;100
75089;BME280;63673;49.928;8.150;2023-12-07T01:44:12;995.09;;;-0.55;100
75089;BME280;63673;49.928;8.150;2023-12-07T01:45:14;995.09;;;-0.56;100
75089;BME280;63673;49.928;8.150;2023-12-07T01:46:15;995.12;;;-0.59;100
75089;BME280;63673;49.928;8.150;2023-12-07T01:47:17;995.1;;;-0.6;100
75089;BME280;63673;49.928;8.150;2023-12-07T01:48:19;995.11;;;-0.59;100
75089;BME280;63673;49.928;8.150;2023-12-07T01:49:21;995.04;;;-0.6;100
75089;BME280;63673;49.928;8.150;2023-12-07T01:50:22;995.11;;;-0.62;100
75089;BME280;63673;49.928;8.150;2023-12-07T01:51:24;995.04;;;-0.62;100
75089;BME280;63673;49.928;8.150;2023-12-07T01:52:26;995.04;;;-0.63;100
75089;BME280;63673;49.928;8.150;2023-12-07T01:53:27;995.11;;;-0.64;100
75089;BME280;63673;49.928;8.150;2023-12-07T01:54:29;995.09;;;-0.66;100
75089;BME280;63673;49.928;8.150;2023-12-07T01:55:31;995.03;;;-0.68;100
75089;BME280;63673;49.928;8.150;2023-12-07T01:56:33;995.06;;;-0.71;100
75089;BME280;63673;49.928;8.150;2023-12-07T01:57:34;995.07;;;-0.74;100
75089;BME280;63673;49.928;8.150;2023-12-07T01:58:36;995.07;;;-0.76;100
75089;BME280;63673;49.928;8.150;2023-12-07T01:59:38;995.2;;;-0.79;100
75089;BME280;63673;49.928;8.150;2023-12-07T02:00:40;995.21;;;-0.81;100
75089;BME280;63673;49.928;8.150;2023-12-07T02:01:42;995.24;;;-0.83;100
75089;BME280;63673;49.928;8.150;2023-12-07T02:02:43;995.23;;;-0.86;100
75089;BME280;63673;49.928;8.150;2023-12-07T02:03:45;995.28;;;-0.88;100
75089;BME280;63673;49.928;8.150;2023-12-07T02:04:47;995.29;;;-0.89;100
75089;BME280;63673;49.928;8.150;2023-12-07T02:05:48;995.27;;;-0.9;100
75089;BME280;63673;49.928;8.150;2023-12-07T02:06:50;995.31;;;-0.9;100
75089;BME280;63673;49.928;8.150;2023-12-07T02:07:52;995.28;;;-0.89;100
75089;BME280;63673;49.928;8.150;2023-12-07T02:08:53;995.26;;;-0.89;100
75089;BME280;63673;49.928;8.150;2023-12-07T02:09:55;995.28;;;-0.89;100
75089;BME280;63673;49.928;8.150;2023-12-07T02:10:57;995.27;;;-0.89;100
75089;BME280;63673;49.928;8.150;2023-12-07T02:11:59;995.18;;;-0.9;100
75089;BME280;63673;49.928;8.150;2023-12-07T02:13:00;995.15;;;-0.89;100
75089;BME280;63673;49.928;8.150;2023-12-07T02:18:19;995.2;;;-0.9;100
75089;BME280;63673;49.928;8.150;2023-12-07T02:21:25;995.08;;;-0.9;100
75089;BME280;63673;49.928;8.150;2023-12-07T02:23:32;995.2;;;-0.91;100
75089;BME280;63673;49.928;8.150;2023-12-07T02:25:26;995.25;;;-0.93;100
75089;BME280;63673;49.928;8.150;2023-12-07T02:27:32;995.23;;;-0.95;100
75089;BME280;63673;49.928;8.150;2023-12-07T02:28:54;995.27;;;-0.99;100
75089;BME280;63673;49.928;8.150;2023-12-07T02:29:55;995.25;;;-0.99;100
75089;BME280;63673;49.928;8.150;2023-12-07T02:30:58;995.25;;;-1.01;100
75089;BME280;63673;49.928;8.150;2023-12-07T02:31:59;995.22;;;-1.02;100
75089;BME280;63673;49.928;8.150;2023-12-07T02:33:01;995.25;;;-1.04;100
75089;BME280;63673;49.928;8.150;2023-12-07T02:34:02;995.21;;;-1.05;100
75089;BME280;63673;49.928;8.150;2023-12-07T02:35:04;995.21;;;-1.05;100
75089;BME280;63673;49.928;8.150;2023-12-07T02:36:05;995.25;;;-1.06;100
75089;BME280;63673;49.928;8.150;2023-12-07T02:37:07;995.26;;;-1.08;100
75089;BME280;63673;49.928;8.150;2023-12-07T02:38:09;995.23;;;-1.08;100
75089;BME280;63673;49.928;8.150;2023-12-07T02:39:11;995.25;;;-1.1;100
75089;BME280;63673;49.928;8.150;2023-12-07T02:40:14;995.28;;;-1.11;100
75089;BME280;63673;49.928;8.150;2023-12-07T02:41:15;995.26;;;-1.12;100
75089;BME280;63673;49.928;8.150;2023-12-07T02:42:16;995.27;;;-1.13;100
75089;BME280;63673;49.928;8.150;2023-12-07T02:43:18;995.25;;;-1.14;100
75089;BME280;63673;49.928;8.150;2023-12-07T02:44:20;995.29;;;-1.13;100
75089;BME280;63673;49.928;8.150;2023-12-07T02:45:22;995.26;;;-1.14;100
75089;BME280;63673;49.928;8.150;2023-12-07T02:46:23;995.26;;;-1.12;100
75089;BME280;63673;49.928;8.150;2023-12-07T02:47:25;995.17;;;-1.13;100
75089;BME280;63673;49.928;8.150;2023-12-07T02:48:27;995.29;;;-1.12;100
75089;BME280;63673;49.928;8.150;2023-12-07T02:49:28;995.23;;;-1.12;100
75089;BME280;63673;49.928;8.150;2023-12-07T02:50:30;995.25;;;-1.12;100
75089;BME280;63673;49.928;8.150;2023-12-07T02:51:32;995.22;;;-1.11;100
75089;BME280;63673;49.928;8.150;2023-12-07T02:52:34;995.2;;;-1.1;100
75089;BME280;63673;49.928;8.150;2023-12-07T02:53:35;995.2;;;-1.09;100
75089;BME280;63673;49.928;8.150;2023-12-07T02:54:37;995.17;;;-1.08;100
75089;BME280;63673;49.928;8.150;2023-12-07T02:55:39;995.17;;;-1.06;100
75089;BME280;63673;49.928;8.150;2023-12-07T02:56:41;995.15;;;-1.05;100
75089;BME280;63673;49.928;8.150;2023-12-07T02:57:42;995.21;;;-1.05;100
75089;BME280;63673;49.928;8.150;2023-12-07T02:58:44;995.16;;;-1.04;100
75089;BME280;63673;49.928;8.150;2023-12-07T02:59:46;995.22;;;-1.02;100
75089;BME280;63673;49.928;8.150;2023-12-07T03:00:48;995.2;;;-1.01;100
75089;BME280;63673;49.928;8.150;2023-12-07T03:01:49;995.19;;;-1.02;100
75089;BME280;63673;49.928;8.150;2023-12-07T03:02:51;995.23;;;-1.01;100
75089;BME280;63673;49.928;8.150;2023-12-07T03:03:53;995.24;;;-1.01;100
75089;BME280;63673;49.928;8.150;2023-12-07T03:04:54;995.18;;;-1.02;100
75089;BME280;63673;49.928;8.150;2023-12-07T03:05:56;995.28;;;-1.03;100
75089;BME280;63673;49.928;8.150;2023-12-07T03:06:58;995.29;;;-1.02;100
75089;BME280;63673;49.928;8.150;2023-12-07T03:08:00;995.3;;;-1.05;100
75089;BME280;63673;49.928;8.150;2023-12-07T03:09:01;995.25;;;-1.06;100
75089;BME280;63673;49.928;8.150;2023-12-07T03:10:03;995.29;;;-1.07;100
75089;BME280;63673;49.928;8.150;2023-12-07T03:11:05;995.25;;;-1.09;100
75089;BME280;63673;49.928;8.150;2023-12-07T03:12:07;995.3;;;-1.11;100
75089;BME280;63673;49.928;8.150;2023-12-07T03:13:08;995.36;;;-1.13;100
75089;BME280;63673;49.928;8.150;2023-12-07T03:14:10;995.32;;;-1.15;100
75089;BME280;63673;49.928;8.150;2023-12-07T03:15:12;995.37;;;-1.16;100
75089;BME280;63673;49.928;8.150;2023-12-07T03:16:13;995.35;;;-1.17;100
75089;BME280;63673;49.928;8.150;2023-12-07T03:17:15;995.35;;;-1.19;100
75089;BME280;63673;49.928;8.150;2023-12-07T03:18:17;995.31;;;-1.18;100
75089;BME280;63673;49.928;8.150;2023-12-07T03:19:19;995.34;;;-1.19;100
75089;BME280;63673;49.928;8.150;2023-12-07T03:20:20;995.33;;;-1.21;100
75089;BME280;63673;49.928;8.150;2023-12-07T03:21:22;995.32;;;-1.21;100
75089;BME280;63673;49.928;8.150;2023-12-07T03:22:24;995.28;;;-1.21;100
75089;BME280;63673;49.928;8.150;2023-12-07T03:23:26;995.29;;;-1.2;100
75089;BME280;63673;49.928;8.150;2023-12-07T03:24:27;995.28;;;-1.21;100
75089;BME280;63673;49.928;8.150;2023-12-07T03:25:29;995.3;;;-1.2;100
75089;BME280;63673;49.928;8.150;2023-12-07T03:26:31;995.3;;;-1.2;100
75089;BME280;63673;49.928;8.150;2023-12-07T03:27:33;995.29;;;-1.19;100
75089;BME280;63673;49.928;8.150;2023-12-07T03:28:34;995.3;;;-1.2;100
75089;BME280;63673;49.928;8.150;2023-12-07T03:29:36;995.34;;;-1.2;100
75089;BME280;63673;49.928;8.150;2023-12-07T03:30:38;995.3;;;-1.2;100
75089;BME280;63673;49.928;8.150;2023-12-07T03:31:39;995.33;;;-1.2;100
75089;BME280;63673;49.928;8.150;2023-12-07T03:32:41;995.31;;;-1.2;100
75089;BME280;63673;49.928;8.150;2023-12-07T03:33:44;995.34;;;-1.21;100
75089;BME280;63673;49.928;8.150;2023-12-07T03:34:45;995.35;;;-1.22;100
75089;BME280;63673;49.928;8.150;2023-12-07T03:35:46;995.38;;;-1.22;100
75089;BME280;63673;49.928;8.150;2023-12-07T03:36:48;995.4;;;-1.22;100
75089;BME280;63673;49.928;8.150;2023-12-07T03:37:50;995.4;;;-1.23;100
75089;BME280;63673;49.928;8.150;2023-12-07T03:38:52;995.41;;;-1.22;100
75089;BME280;63673;49.928;8.150;2023-12-07T03:39:53;995.39;;;-1.22;100
75089;BME280;63673;49.928;8.150;2023-12-07T03:40:55;995.41;;;-1.24;100
75089;BME280;63673;49.928;8.150;2023-12-07T03:41:57;995.38;;;-1.24;100
75089;BME280;63673;49.928;8.150;2023-12-07T03:42:59;995.39;;;-1.24;100
75089;BME280;63673;49.928;8.150;2023-12-07T03:44:00;995.41;;;-1.24;100
75089;BME280;63673;49.928;8.150;2023-12-07T03:45:02;995.43;;;-1.25;100
75089;BME280;63673;49.928;8.150;2023-12-07T03:46:04;995.5;;;-1.26;100
75089;BME280;63673;49.928;8.150;2023-12-07T03:47:05;995.45;;;-1.25;100
75089;BME280;63673;49.928;8.150;2023-12-07T03:48:07;995.47;;;-1.25;100
75089;BME280;63673;49.928;8.150;2023-12-07T03:49:09;995.45;;;-1.26;100
75089;BME280;63673;49.928;8.150;2023-12-07T03:50:11;995.43;;;-1.27;100
75089;BME280;63673;49.928;8.150;2023-12-07T03:51:13;995.41;;;-1.27;100
75089;BME280;63673;49.928;8.150;2023-12-07T03:52:16;995.45;;;-1.28;100
75089;BME280;63673;49.928;8.150;2023-12-07T03:53:16;995.43;;;-1.29;100
75089;BME280;63673;49.928;8.150;2023-12-07T03:54:18;995.45;;;-1.29;100
75089;BME280;63673;49.928;8.150;2023-12-07T03:55:19;995.43;;;-1.3;100
75089;BME280;63673;49.928;8.150;2023-12-07T03:56:22;995.47;;;-1.31;100
75089;BME280;63673;49.928;8.150;2023-12-07T03:57:23;995.46;;;-1.31;100
75089;BME280;63673;49.928;8.150;2023-12-07T03:58:25;995.46;;;-1.31;100
75089;BME280;63673;49.928;8.150;2023-12-07T03:59:26;995.49;;;-1.33;100
75089;BME280;63673;49.928;8.150;2023-12-07T04:00:28;995.49;;;-1.33;100
75089;BME280;63673;49.928;8.150;2023-12-07T04:01:30;995.49;;;-1.34;100
75089;BME280;63673;49.928;8.150;2023-12-07T04:02:32;995.5;;;-1.34;100
75089;BME280;63673;49.928;8.150;2023-12-07T04:03:33;995.51;;;-1.35;100
75089;BME280;63673;49.928;8.150;2023-12-07T04:04:35;995.53;;;-1.36;100
75089;BME280;63673;49.928;8.150;2023-12-07T04:05:37;995.52;;;-1.37;100
75089;BME280;63673;49.928;8.150;2023-12-07T04:06:38;995.54;;;-1.37;100
75089;BME280;63673;49.928;8.150;2023-12-07T04:07:40;995.53;;;-1.39;100
75089;BME280;63673;49.928;8.150;2023-12-07T04:08:42;995.55;;;-1.4;100
75089;BME280;63673;49.928;8.150;2023-12-07T04:09:44;995.51;;;-1.4;100
75089;BME280;63673;49.928;8.150;2023-12-07T04:10:45;995.48;;;-1.41;100
75089;BME280;63673;49.928;8.150;2023-12-07T04:11:47;995.44;;;-1.4;100
75089;BME280;63673;49.928;8.150;2023-12-07T04:12:49;995.48;;;-1.4;100
75089;BME280;63673;49.928;8.150;2023-12-07T04:13:51;995.48;;;-1.41;100
75089;BME280;63673;49.928;8.150;2023-12-07T04:14:52;995.47;;;-1.39;100
75089;BME280;63673;49.928;8.150;2023-12-07T04:15:54;995.47;;;-1.4;100
75089;BME280;63673;49.928;8.150;2023-12-07T04:16:56;995.47;;;-1.38;100
75089;BME280;63673;49.928;8.150;2023-12-07T04:17:57;995.45;;;-1.38;100
75089;BME280;63673;49.928;8.150;2023-12-07T04:18:59;995.43;;;-1.37;100
75089;BME280;63673;49.928;8.150;2023-12-07T04:20:01;995.4;;;-1.37;100
75089;BME280;63673;49.928;8.150;2023-12-07T04:21:03;995.44;;;-1.36;100
75089;BME280;63673;49.928;8.150;2023-12-07T04:22:04;995.49;;;-1.36;100
75089;BME280;63673;49.928;8.150;2023-12-07T04:23:06;995.49;;;-1.36;100
75089;BME280;63673;49.928;8.150;2023-12-07T04:24:08;995.53;;;-1.35;100
75089;BME280;63673;49.928;8.150;2023-12-07T04:25:10;995.46;;;-1.36;100
75089;BME280;63673;49.928;8.150;2023-12-07T04:26:11;995.51;;;-1.35;100
75089;BME280;63673;49.928;8.150;2023-12-07T04:27:13;995.49;;;-1.35;100
75089;BME280;63673;49.928;8.150;2023-12-07T04:28:15;995.48;;;-1.35;100
75089;BME280;63673;49.928;8.150;2023-12-07T04:29:17;995.46;;;-1.34;100
75089;BME280;63673;49.928;8.150;2023-12-07T04:30:18;995.47;;;-1.35;100
75089;BME280;63673;49.928;8.150;2023-12-07T04:31:20;995.48;;;-1.34;100
75089;BME280;63673;49.928;8.150;2023-12-07T04:32:22;995.48;;;-1.33;100
75089;BME280;63673;49.928;8.150;2023-12-07T04:33:23;995.44;;;-1.32;100
75089;BME280;63673;49.928;8.150;2023-12-07T04:34:25;995.51;;;-1.31;100
75089;BME280;63673;49.928;8.150;2023-12-07T04:35:27;995.51;;;-1.3;100
75089;BME280;63673;49.928;8.150;2023-12-07T04:36:29;995.42;;;-1.29;100
75089;BME280;63673;49.928;8.150;2023-12-07T04:37:30;995.52;;;-1.28;100
75089;BME280;63673;49.928;8.150;2023-12-07T04:38:32;995.49;;;-1.27;100
75089;BME280;63673;49.928;8.150;2023-12-07T04:39:35;995.5;;;-1.26;100
75089;BME280;63673;49.928;8.150;2023-12-07T04:40:36;995.55;;;-1.25;100
75089;BME280;63673;49.928;8.150;2023-12-07T04:41:37;995.52;;;-1.25;100
75089;BME280;63673;49.928;8.150;2023-12-07T04:42:39;995.55;;;-1.24;100
75089;BME280;63673;49.928;8.150;2023-12-07T04:43:41;995.52;;;-1.24;100
75089;BME280;63673;49.928;8.150;2023-12-07T04:44:43;995.54;;;-1.24;100
75089;BME280;63673;49.928;8.150;2023-12-07T04:45:44;995.51;;;-1.25;100
75089;BME280;63673;49.928;8.150;2023-12-07T04:46:46;995.46;;;-1.23;100
75089;BME280;63673;49.928;8.150;2023-12-07T04:47:48;995.51;;;-1.24;100
75089;BME280;63673;49.928;8.150;2023-12-07T04:48:49;995.51;;;-1.25;100
75089;BME280;63673;49.928;8.150;2023-12-07T04:49:51;995.5;;;-1.26;100
75089;BME280;63673;49.928;8.150;2023-12-07T04:50:53;995.49;;;-1.27;100
75089;BME280;63673;49.928;8.150;2023-12-07T04:51:55;995.51;;;-1.27;100
75089;BME280;63673;49.928;8.150;2023-12-07T04:52:56;995.55;;;-1.27;100
75089;BME280;63673;49.928;8.150;2023-12-07T04:53:58;995.55;;;-1.28;100
75089;BME280;63673;49.928;8.150;2023-12-07T04:55:00;995.61;;;-1.29;100
75089;BME280;63673;49.928;8.150;2023-12-07T04:56:02;995.57;;;-1.3;100
75089;BME280;63673;49.928;8.150;2023-12-07T04:57:03;995.59;;;-1.31;100
75089;BME280;63673;49.928;8.150;2023-12-07T04:58:05;995.59;;;-1.31;100
75089;BME280;63673;49.928;8.150;2023-12-07T04:59:07;995.5;;;-1.32;100
75089;BME280;63673;49.928;8.150;2023-12-07T05:00:09;995.64;;;-1.33;100
75089;BME280;63673;49.928;8.150;2023-12-07T05:01:10;995.64;;;-1.34;100
75089;BME280;63673;49.928;8.150;2023-12-07T05:02:12;995.67;;;-1.36;100
75089;BME280;63673;49.928;8.150;2023-12-07T05:03:14;995.63;;;-1.37;100
75089;BME280;63673;49.928;8.150;2023-12-07T05:04:15;995.63;;;-1.38;100
75089;BME280;63673;49.928;8.150;2023-12-07T05:05:17;995.63;;;-1.39;100
75089;BME280;63673;49.928;8.150;2023-12-07T05:06:19;995.58;;;-1.41;100
75089;BME280;63673;49.928;8.150;2023-12-07T05:07:21;995.61;;;-1.42;100
75089;BME280;63673;49.928;8.150;2023-12-07T05:08:22;995.67;;;-1.43;100
75089;BME280;63673;49.928;8.150;2023-12-07T05:09:24;995.72;;;-1.43;100
75089;BME280;63673;49.928;8.150;2023-12-07T05:10:26;995.69;;;-1.45;100
75089;BME280;63673;49.928;8.150;2023-12-07T05:11:28;995.65;;;-1.46;100
75089;BME280;63673;49.928;8.150;2023-12-07T05:12:29;995.68;;;-1.47;100
75089;BME280;63673;49.928;8.150;2023-12-07T05:13:31;995.7;;;-1.48;100
75089;BME280;63673;49.928;8.150;2023-12-07T05:14:33;995.69;;;-1.5;100
75089;BME280;63673;49.928;8.150;2023-12-07T05:15:35;995.69;;;-1.51;100
75089;BME280;63673;49.928;8.150;2023-12-07T05:16:36;995.62;;;-1.53;100
75089;BME280;63673;49.928;8.150;2023-12-07T05:17:39;995.66;;;-1.55;100
75089;BME280;63673;49.928;8.150;2023-12-07T05:18:40;995.68;;;-1.57;100
75089;BME280;63673;49.928;8.150;2023-12-07T05:19:42;995.74;;;-1.58;100
75089;BME280;63673;49.928;8.150;2023-12-07T05:20:43;995.66;;;-1.6;100
75089;BME280;63673;49.928;8.150;2023-12-07T05:21:45;995.73;;;-1.61;100
75089;BME280;63673;49.928;8.150;2023-12-07T05:22:47;995.7;;;-1.61;100
75089;BME280;63673;49.928;8.150;2023-12-07T05:23:48;995.77;;;-1.62;100
75089;BME280;63673;49.928;8.150;2023-12-07T05:24:50;995.73;;;-1.64;100
75089;BME280;63673;49.928;8.150;2023-12-07T05:25:52;995.68;;;-1.65;100
75089;BME280;63673;49.928;8.150;2023-12-07T05:26:54;995.66;;;-1.65;100
75089;BME280;63673;49.928;8.150;2023-12-07T05:27:55;995.66;;;-1.66;100
75089;BME280;63673;49.928;8.150;2023-12-07T05:28:57;995.66;;;-1.67;100
75089;BME280;63673;49.928;8.150;2023-12-07T05:29:59;995.62;;;-1.67;100
75089;BME280;63673;49.928;8.150;2023-12-07T05:31:01;995.63;;;-1.68;100
75089;BME280;63673;49.928;8.150;2023-12-07T05:32:02;995.66;;;-1.69;100
75089;BME280;63673;49.928;8.150;2023-12-07T05:33:04;995.58;;;-1.69;100
75089;BME280;63673;49.928;8.150;2023-12-07T05:34:06;995.64;;;-1.71;100
75089;BME280;63673;49.928;8.150;2023-12-07T05:35:08;995.64;;;-1.71;100
75089;BME280;63673;49.928;8.150;2023-12-07T05:36:09;995.64;;;-1.72;100
75089;BME280;63673;49.928;8.150;2023-12-07T05:37:11;995.63;;;-1.72;100
75089;BME280;63673;49.928;8.150;2023-12-07T05:38:13;995.63;;;-1.72;100
75089;BME280;63673;49.928;8.150;2023-12-07T05:39:14;995.65;;;-1.73;100
75089;BME280;63673;49.928;8.150;2023-12-07T05:40:16;995.53;;;-1.73;100
75089;BME280;63673;49.928;8.150;2023-12-07T05:41:18;995.63;;;-1.75;100
75089;BME280;63673;49.928;8.150;2023-12-07T05:42:20;995.57;;;-1.74;100
75089;BME280;63673;49.928;8.150;2023-12-07T05:43:21;995.56;;;-1.74;100
75089;BME280;63673;49.928;8.150;2023-12-07T05:44:23;995.53;;;-1.74;100
75089;BME280;63673;49.928;8.150;2023-12-07T05:45:25;995.61;;;-1.75;100
75089;BME280;63673;49.928;8.150;2023-12-07T05:46:27;995.63;;;-1.75;100
75089;BME280;63673;49.928;8.150;2023-12-07T05:47:28;995.64;;;-1.74;100
75089;BME280;63673;49.928;8.150;2023-12-07T05:48:30;995.67;;;-1.75;100
75089;BME280;63673;49.928;8.150;2023-12-07T05:49:32;995.66;;;-1.75;100
75089;BME280;63673;49.928;8.150;2023-12-07T05:50:33;995.73;;;-1.75;100
75089;BME280;63673;49.928;8.150;2023-12-07T05:51:35;995.71;;;-1.75;100
75089;BME280;63673;49.928;8.150;2023-12-07T05:52:37;995.72;;;-1.75;100
75089;BME280;63673;49.928;8.150;2023-12-07T05:53:39;995.68;;;-1.76;100
75089;BME280;63673;49.928;8.150;2023-12-07T05:54:40;995.69;;;-1.76;100
75089;BME280;63673;49.928;8.150;2023-12-07T05:55:42;995.7;;;-1.75;100
75089;BME280;63673;49.928;8.150;2023-12-07T05:56:44;995.7;;;-1.75;100